Time;durP1;ratioP1;P1;durP2;ratioP2;P2;SDS_P1;SDS_P2;PMS_P1;PMS_P2;Temp;Humidity;BMP_temperature;BMP_pressure;BME280_temperature;BME280_humidity;BME280_pressure;Samples;Min_cycle;Max_cycle;Signal;HPM_P1;HPM_P2
2023/09/02 00:00:34;;;;;;;4.10;3.77;;;18.30;99.90;;;;;;5074941;28;20166;-78
2023/09/02 00:03:00;;;;;;;4.13;3.83;;;18.20;99.90;;;;;;5092968;28;20506;-77
2023/09/02 00:05:25;;;;;;;4.10;3.90;;;18.20;99.90;;;;;;5093580;28;20257;-76
2023/09/02 00:07:51;;;;;;;3.70;3.40;;;18.20;99.90;;;;;;5102833;28;20174;-78
2023/09/02 00:10:17;;;;;;;3.80;3.30;;;18.10;99.90;;;;;;5115486;28;20186;-76
2023/09/02 00:12:42;;;;;;;3.77;3.47;;;18.10;99.90;;;;;;5099312;28;20206;-77
2023/09/02 00:15:09;;;;;;;3.73;3.30;;;18.10;99.90;;;;;;5092714;28;20175;-76
2023/09/02 00:17:35;;;;;;;3.50;3.30;;;18.10;99.90;;;;;;5093775;28;20318;-78
2023/09/02 00:20:05;;;;;;;4.73;3.70;;;18.00;99.90;;;;;;5078192;28;20170;-76
2023/09/02 00:22:32;;;;;;;3.93;3.63;;;18.00;99.90;;;;;;5096467;28;20536;-75
2023/09/02 00:24:58;;;;;;;3.80;3.50;;;18.00;99.90;;;;;;5078062;28;20223;-77
2023/09/02 00:27:24;;;;;;;3.63;3.33;;;18.00;99.90;;;;;;5096470;28;20170;-78
2023/09/02 00:29:50;;;;;;;3.70;3.40;;;18.00;99.90;;;;;;5097809;28;20197;-76
2023/09/02 00:32:16;;;;;;;3.90;3.57;;;17.90;99.90;;;;;;5085594;28;20186;-76
2023/09/02 00:34:41;;;;;;;3.57;3.33;;;17.90;99.90;;;;;;5106081;28;20175;-76
2023/09/02 00:37:07;;;;;;;3.93;3.57;;;17.90;99.90;;;;;;5097901;28;20193;-76
2023/09/02 00:39:33;;;;;;;4.33;3.60;;;17.80;99.90;;;;;;5096371;28;20175;-77
2023/09/02 00:42:01;;;;;;;3.90;3.60;;;17.80;99.90;;;;;;5098201;28;20173;-79
2023/09/02 00:44:26;;;;;;;4.67;3.70;;;17.80;99.90;;;;;;5080706;28;20528;-76
2023/09/02 00:46:52;;;;;;;3.87;3.67;;;17.80;99.90;;;;;;5095755;28;20173;-77
2023/09/02 00:49:18;;;;;;;4.03;3.63;;;17.80;99.90;;;;;;5095736;28;20174;-77
2023/09/02 00:51:44;;;;;;;4.40;4.10;;;17.80;99.90;;;;;;5077564;28;20186;-77
2023/09/02 00:54:10;;;;;;;3.77;3.47;;;17.80;99.90;;;;;;5095832;28;20166;-77
2023/09/02 00:56:37;;;;;;;4.67;3.90;;;17.80;99.90;;;;;;5095666;28;20176;-78
2023/09/02 00:59:06;;;;;;;3.93;3.63;;;17.80;99.90;;;;;;5095587;28;20198;-79
2023/09/02 01:01:33;;;;;;;5.87;3.77;;;17.80;99.90;;;;;;5095897;28;20227;-78
2023/09/02 01:04:02;;;;;;;4.07;3.87;;;17.80;99.90;;;;;;5095864;28;20171;-77
2023/09/02 01:06:28;;;;;;;4.20;3.90;;;17.80;99.90;;;;;;5095820;28;20163;-79
2023/09/02 01:08:54;;;;;;;5.00;3.90;;;17.70;99.90;;;;;;5095665;28;20185;-78
2023/09/02 01:11:20;;;;;;;3.97;3.63;;;17.70;99.90;;;;;;5095896;28;20220;-79
2023/09/02 01:13:46;;;;;;;3.93;3.73;;;17.60;99.90;;;;;;5099700;28;20174;-79
2023/09/02 01:16:11;;;;;;;4.37;4.07;;;17.60;99.90;;;;;;5120666;28;20159;-79
2023/09/02 01:18:37;;;;;;;4.17;3.87;;;17.50;99.90;;;;;;5099443;28;20214;-75
2023/09/02 01:21:22;;;;;;;4.40;4.03;;;17.50;99.90;;;;;;5099852;28;20171;-77
2023/09/02 01:24:09;;;;;;;3.80;3.50;;;17.50;99.90;;;;;;5099454;28;20207;-78
2023/09/02 01:26:46;;;;;;;3.83;3.63;;;17.50;99.90;;;;;;5100448;28;20186;-81
2023/09/02 01:29:20;;;;;;;3.80;3.60;;;17.50;99.90;;;;;;5096398;28;20188;-76
2023/09/02 01:31:48;;;;;;;4.07;3.87;;;17.50;99.90;;;;;;5075515;28;20168;-76
2023/09/02 01:34:18;;;;;;;3.87;3.67;;;17.50;99.90;;;;;;5075323;28;20182;-75
2023/09/02 01:36:46;;;;;;;3.70;3.40;;;17.50;99.90;;;;;;5075295;28;20927;-77
2023/09/02 01:39:14;;;;;;;4.10;3.80;;;17.40;99.90;;;;;;5075047;28;20190;-75
2023/09/02 01:41:41;;;;;;;4.13;3.67;;;17.50;99.90;;;;;;5075077;28;20168;-76
2023/09/02 01:44:10;;;;;;;4.03;3.73;;;17.50;99.90;;;;;;5075026;28;20510;-74
2023/09/02 01:46:36;;;;;;;3.63;3.43;;;17.50;99.90;;;;;;5074753;28;20244;-75
2023/09/02 01:49:02;;;;;;;3.90;3.67;;;17.40;99.90;;;;;;5074723;28;20174;-76
2023/09/02 01:51:29;;;;;;;3.90;3.60;;;17.40;99.90;;;;;;5074782;28;20171;-78
2023/09/02 01:53:55;;;;;;;4.20;3.90;;;17.40;99.90;;;;;;5075374;28;20671;-76
2023/09/02 01:56:21;;;;;;;3.77;3.57;;;17.30;99.90;;;;;;5077828;28;20183;-76
2023/09/02 01:58:49;;;;;;;4.13;3.80;;;17.30;99.90;;;;;;5088886;28;20281;-76
2023/09/02 02:01:15;;;;;;;3.93;3.63;;;17.30;99.90;;;;;;5093272;28;20198;-78
2023/09/02 02:03:57;;;;;;;4.47;4.07;;;17.20;99.90;;;;;;5096644;28;20663;-78
2023/09/02 02:06:24;;;;;;;4.37;4.07;;;17.30;99.90;;;;;;5078637;28;20170;-77
2023/09/02 02:09:00;;;;;;;4.37;4.03;;;17.30;99.90;;;;;;5080558;28;20186;-79
2023/09/02 02:11:28;;;;;;;4.40;4.00;;;17.30;99.90;;;;;;5080635;28;20186;-78
2023/09/02 02:14:01;;;;;;;4.17;3.77;;;17.30;99.90;;;;;;5055823;28;20657;-78
2023/09/02 02:16:26;;;;;;;4.23;3.93;;;17.30;99.90;;;;;;5073808;28;20206;-76
2023/09/02 02:18:52;;;;;;;4.13;3.87;;;17.30;99.90;;;;;;5073969;28;20229;-76
2023/09/02 02:21:18;;;;;;;4.37;4.07;;;17.30;99.90;;;;;;5075908;28;20175;-76
2023/09/02 02:23:44;;;;;;;3.73;3.43;;;17.20;99.90;;;;;;5080886;28;20167;-78
2023/09/02 02:26:10;;;;;;;4.27;3.97;;;17.20;99.90;;;;;;5076235;28;20171;-77
2023/09/02 02:28:37;;;;;;;4.17;3.87;;;17.20;99.90;;;;;;5074783;28;20175;-76
2023/09/02 02:31:04;;;;;;;4.00;3.70;;;17.20;99.90;;;;;;5073519;28;20181;-76
2023/09/02 02:33:29;;;;;;;4.43;4.10;;;17.20;99.90;;;;;;5073594;28;20167;-77
2023/09/02 02:35:55;;;;;;;3.87;3.63;;;17.20;99.90;;;;;;5073531;28;20181;-78
2023/09/02 02:38:22;;;;;;;3.73;3.53;;;17.20;99.90;;;;;;5055244;28;20211;-77
2023/09/02 02:40:47;;;;;;;4.27;3.93;;;17.20;99.90;;;;;;5072618;28;20182;-78
2023/09/02 02:43:13;;;;;;;4.27;3.97;;;17.20;99.90;;;;;;5055390;28;20222;-77
2023/09/02 02:45:40;;;;;;;4.10;3.80;;;17.20;99.90;;;;;;5073346;28;20167;-75
2023/09/02 02:48:07;;;;;;;3.93;3.73;;;17.20;99.90;;;;;;5073377;28;20523;-77
2023/09/02 02:50:36;;;;;;;3.97;3.67;;;17.30;99.90;;;;;;5073573;28;20183;-76
2023/09/02 02:53:03;;;;;;;3.83;3.60;;;17.20;99.90;;;;;;5073336;28;20202;-76
2023/09/02 02:55:28;;;;;;;4.00;3.70;;;17.20;99.90;;;;;;5055353;28;20175;-76
2023/09/02 02:57:56;;;;;;;5.50;4.13;;;17.20;99.90;;;;;;5073141;28;20229;-77
2023/09/02 03:00:22;;;;;;;4.00;3.70;;;17.20;99.90;;;;;;5073127;28;20710;-78
2023/09/02 03:02:51;;;;;;;4.10;3.80;;;17.20;99.90;;;;;;5055767;28;20266;-77
2023/09/02 03:05:19;;;;;;;3.80;3.60;;;17.20;99.90;;;;;;5073794;28;20159;-77
2023/09/02 03:07:45;;;;;;;4.03;3.70;;;17.20;99.90;;;;;;5074818;28;20170;-76
2023/09/02 03:10:11;;;;;;;5.90;4.00;;;17.20;99.90;;;;;;5074437;28;20213;-77
2023/09/02 03:12:37;;;;;;;4.47;4.17;;;17.20;99.90;;;;;;5073980;28;20174;-76
2023/09/02 03:15:03;;;;;;;4.87;3.70;;;17.20;99.90;;;;;;5073912;28;20168;-76
2023/09/02 03:17:29;;;;;;;3.80;3.60;;;17.20;99.90;;;;;;5066204;28;20234;-76
2023/09/02 03:19:54;;;;;;;3.97;3.67;;;17.20;99.90;;;;;;5112170;28;20183;-77
2023/09/02 03:22:20;;;;;;;4.00;3.80;;;17.20;99.90;;;;;;5098613;28;20259;-76
2023/09/02 03:24:46;;;;;;;4.17;3.80;;;17.10;99.90;;;;;;5093291;28;20179;-79
2023/09/02 03:27:12;;;;;;;3.90;3.70;;;17.10;99.90;;;;;;5093113;28;20174;-77
2023/09/02 03:29:37;;;;;;;4.00;3.67;;;17.10;99.90;;;;;;5074890;28;20629;-78
2023/09/02 03:32:03;;;;;;;4.10;3.70;;;17.10;99.90;;;;;;5093185;28;20166;-77
2023/09/02 03:34:29;;;;;;;4.50;3.90;;;17.10;99.90;;;;;;5093229;28;20170;-75
2023/09/02 03:36:55;;;;;;;4.00;3.70;;;17.00;99.90;;;;;;5092911;28;20640;-77
2023/09/02 03:39:20;;;;;;;4.30;4.00;;;17.00;99.90;;;;;;5092999;28;20205;-76
2023/09/02 03:41:46;;;;;;;4.93;3.73;;;17.00;99.90;;;;;;5093127;28;20173;-76
2023/09/02 03:44:12;;;;;;;4.43;4.13;;;17.00;99.90;;;;;;5093095;28;20519;-76
2023/09/02 03:46:38;;;;;;;4.00;3.70;;;17.00;99.90;;;;;;5093439;28;20666;-77
2023/09/02 03:49:03;;;;;;;3.93;3.67;;;17.00;99.90;;;;;;5079791;28;20205;-76
2023/09/02 03:51:29;;;;;;;4.27;3.97;;;17.00;99.90;;;;;;5094011;28;20174;-77
2023/09/02 03:53:55;;;;;;;3.87;3.63;;;17.00;99.90;;;;;;5097255;28;20618;-77
2023/09/02 03:56:20;;;;;;;3.60;3.30;;;16.90;99.90;;;;;;5118260;28;20184;-76
2023/09/02 03:58:46;;;;;;;3.30;3.10;;;16.90;99.90;;;;;;5111705;28;20209;-75
2023/09/02 04:01:12;;;;;;;3.20;3.00;;;16.90;99.90;;;;;;5091530;28;20178;-77
2023/09/02 04:03:38;;;;;;;3.00;2.80;;;16.80;99.90;;;;;;5098744;28;20188;-77
2023/09/02 04:06:05;;;;;;;3.23;3.03;;;16.80;99.90;;;;;;5097064;28;20171;-78
2023/09/02 04:08:36;;;;;;;3.17;2.97;;;16.70;99.90;;;;;;5096927;28;20273;-78
2023/09/02 04:11:02;;;;;;;3.43;3.23;;;16.70;99.90;;;;;;5078812;28;20189;-75
2023/09/02 04:13:29;;;;;;;3.60;3.40;;;16.60;99.90;;;;;;5096797;28;20181;-76
2023/09/02 04:16:00;;;;;;;3.50;3.30;;;16.60;99.90;;;;;;5096745;28;20175;-78
2023/09/02 04:18:26;;;;;;;5.03;2.87;;;16.50;99.90;;;;;;5078503;28;20234;-77
2023/09/02 04:20:52;;;;;;;3.73;3.20;;;16.50;99.90;;;;;;5104567;28;20181;-78
2023/09/02 04:23:21;;;;;;;3.20;3.03;;;16.50;99.90;;;;;;5108876;28;20166;-75
2023/09/02 04:25:51;;;;;;;3.80;3.50;;;16.50;99.90;;;;;;5078304;28;20306;-77
2023/09/02 04:28:18;;;;;;;3.40;3.20;;;16.50;99.90;;;;;;5096396;28;20162;-79
2023/09/02 04:30:44;;;;;;;3.40;3.20;;;16.50;99.90;;;;;;5096404;28;20258;-77
2023/09/02 04:33:11;;;;;;;3.63;3.37;;;16.30;99.90;;;;;;5096316;28;20198;-75
2023/09/02 04:35:38;;;;;;;3.93;3.57;;;16.30;99.90;;;;;;5096372;28;20261;-77
2023/09/02 04:38:05;;;;;;;3.60;3.40;;;16.30;99.90;;;;;;5096283;28;20260;-78
2023/09/02 04:40:31;;;;;;;3.77;3.57;;;16.40;99.90;;;;;;5096769;28;20170;-79
2023/09/02 04:42:57;;;;;;;3.80;3.50;;;16.30;99.90;;;;;;5087868;28;20177;-75
2023/09/02 04:45:23;;;;;;;4.00;3.70;;;16.30;99.90;;;;;;5103013;28;20170;-76
2023/09/02 04:47:49;;;;;;;3.73;3.53;;;16.30;99.90;;;;;;5096234;28;20174;-78
2023/09/02 04:50:15;;;;;;;4.00;3.70;;;16.30;99.90;;;;;;5096045;28;20307;-77
2023/09/02 04:52:44;;;;;;;3.87;3.63;;;16.30;99.90;;;;;;5096437;28;20693;-77
2023/09/02 04:55:10;;;;;;;4.00;3.70;;;16.40;99.90;;;;;;5095920;28;20175;-77
2023/09/02 04:57:36;;;;;;;3.77;3.53;;;16.40;99.90;;;;;;5095832;28;20206;-76
2023/09/02 05:00:02;;;;;;;4.00;3.70;;;16.40;99.90;;;;;;5095882;28;20261;-77
2023/09/02 05:02:28;;;;;;;4.23;3.93;;;16.50;99.90;;;;;;5095992;28;20174;-76
2023/09/02 05:04:54;;;;;;;3.70;3.50;;;16.50;99.90;;;;;;5094597;28;20574;-75
2023/09/02 05:07:20;;;;;;;3.97;3.60;;;16.50;99.90;;;;;;5095653;28;20254;-77
2023/09/02 05:09:45;;;;;;;3.60;3.30;;;16.50;99.90;;;;;;5095798;28;20250;-78
2023/09/02 05:12:11;;;;;;;4.20;3.90;;;16.60;99.90;;;;;;5095569;28;20176;-76
2023/09/02 05:14:39;;;;;;;3.90;3.70;;;16.40;99.90;;;;;;5095355;28;20270;-79
2023/09/02 05:17:04;;;;;;;3.60;3.40;;;16.60;99.90;;;;;;5095236;28;20228;-76
2023/09/02 05:19:30;;;;;;;4.10;3.80;;;16.60;99.90;;;;;;5095416;28;20178;-75
2023/09/02 05:21:57;;;;;;;4.00;3.80;;;16.60;99.90;;;;;;5095378;28;20174;-78
2023/09/02 05:24:23;;;;;;;3.93;3.53;;;16.60;99.90;;;;;;5077283;28;20228;-75
2023/09/02 05:26:49;;;;;;;3.80;3.60;;;16.70;99.90;;;;;;5100314;28;20174;-79
2023/09/02 05:29:15;;;;;;;4.23;4.03;;;16.70;99.90;;;;;;5083448;28;20186;-76
2023/09/02 05:31:40;;;;;;;5.20;4.80;;;16.70;99.90;;;;;;5095383;28;20249;-75
2023/09/02 05:34:06;;;;;;;5.80;4.50;;;16.80;99.90;;;;;;5077192;28;20212;-78
2023/09/02 05:36:32;;;;;;;4.50;4.20;;;16.90;99.90;;;;;;5077143;28;20179;-76
2023/09/02 05:38:58;;;;;;;5.03;4.73;;;17.00;99.90;;;;;;5085079;28;20213;-77
2023/09/02 05:41:28;;;;;;;5.23;4.83;;;17.10;99.90;;;;;;5100656;28;20173;-77
2023/09/02 05:43:53;;;;;;;5.00;4.60;;;17.20;99.90;;;;;;5095679;28;20260;-76
2023/09/02 05:46:19;;;;;;;5.33;4.90;;;17.30;99.90;;;;;;5095723;28;20180;-76
2023/09/02 05:48:45;;;;;;;4.80;4.40;;;17.30;99.90;;;;;;5080634;28;20189;-78
2023/09/02 05:51:10;;;;;;;5.27;4.77;;;17.40;99.90;;;;;;5112277;28;20185;-76
2023/09/02 05:53:36;;;;;;;5.67;4.37;;;17.50;99.90;;;;;;5097366;28;20167;-76
2023/09/02 05:56:02;;;;;;;4.90;4.50;;;17.50;99.90;;;;;;5095166;28;20640;-75
2023/09/02 05:58:28;;;;;;;5.17;4.77;;;17.60;99.90;;;;;;5095449;28;20202;-77
2023/09/02 06:00:53;;;;;;;5.57;5.07;;;17.70;99.90;;;;;;5095548;28;20270;-77
2023/09/02 06:03:19;;;;;;;5.53;4.77;;;17.70;99.90;;;;;;5095874;28;20607;-75
2023/09/02 06:05:45;;;;;;;4.63;4.30;;;17.70;99.90;;;;;;5078699;28;20186;-77
2023/09/02 06:08:10;;;;;;;5.30;4.80;;;17.80;99.90;;;;;;5095713;28;20181;-77
2023/09/02 06:10:37;;;;;;;4.63;4.33;;;17.90;99.90;;;;;;5096356;28;20174;-78
2023/09/02 06:13:03;;;;;;;4.77;4.47;;;17.90;99.90;;;;;;5094584;28;20178;-76
2023/09/02 06:15:28;;;;;;;5.23;4.77;;;18.00;99.90;;;;;;5094226;28;20189;-77
2023/09/02 06:17:54;;;;;;;5.03;4.70;;;18.00;99.90;;;;;;5093985;28;20689;-75
2023/09/02 06:20:22;;;;;;;6.23;4.40;;;18.10;99.90;;;;;;5094560;28;20538;-79
2023/09/02 06:22:48;;;;;;;4.67;4.27;;;18.10;99.90;;;;;;5096050;28;20253;-76
2023/09/02 06:25:15;;;;;;;4.73;4.33;;;18.20;99.90;;;;;;5102470;28;20285;-79
2023/09/02 06:27:41;;;;;;;4.83;4.50;;;18.20;99.90;;;;;;5104321;28;20174;-77
2023/09/02 06:30:07;;;;;;;4.40;4.10;;;18.30;99.90;;;;;;5094563;28;20205;-78
2023/09/02 06:32:33;;;;;;;5.50;5.10;;;18.40;99.90;;;;;;5094257;28;20178;-76
2023/09/02 06:34:59;;;;;;;5.03;4.50;;;18.50;99.90;;;;;;5094135;28;20519;-77
2023/09/02 06:37:28;;;;;;;4.77;4.37;;;18.60;99.90;;;;;;5098492;28;20209;-77
2023/09/02 06:39:54;;;;;;;5.33;4.93;;;18.70;99.90;;;;;;5093935;28;20186;-75
2023/09/02 06:42:20;;;;;;;4.77;4.37;;;18.70;99.90;;;;;;5093803;28;20174;-78
2023/09/02 06:44:47;;;;;;;5.47;5.00;;;18.80;99.90;;;;;;5094095;28;20629;-76
2023/09/02 06:47:15;;;;;;;4.50;4.20;;;18.80;99.90;;;;;;5093977;28;20166;-77
2023/09/02 06:49:41;;;;;;;4.47;4.17;;;18.90;99.90;;;;;;5094907;28;20175;-79
2023/09/02 06:52:07;;;;;;;4.97;4.57;;;18.90;99.90;;;;;;5094084;28;20167;-76
2023/09/02 06:54:32;;;;;;;5.87;4.13;;;19.00;99.90;;;;;;5093553;28;20220;-76
2023/09/02 06:56:58;;;;;;;4.50;4.20;;;19.00;99.90;;;;;;5093589;28;20228;-79
2023/09/02 06:59:25;;;;;;;5.00;4.70;;;19.10;99.90;;;;;;5093668;28;20579;-75
2023/09/02 07:01:52;;;;;;;4.43;4.13;;;19.10;99.90;;;;;;5094146;28;20575;-77
2023/09/02 07:04:18;;;;;;;4.30;4.00;;;19.20;99.90;;;;;;5093479;28;20174;-77
2023/09/02 07:06:43;;;;;;;4.37;4.03;;;19.20;99.90;;;;;;5109030;28;20165;-77
2023/09/02 07:09:10;;;;;;;4.27;3.97;;;19.30;99.90;;;;;;5099494;28;20618;-75
2023/09/02 07:11:36;;;;;;;6.50;4.40;;;19.30;99.90;;;;;;5093435;28;20181;-79
2023/09/02 07:14:02;;;;;;;3.93;3.70;;;19.50;99.90;;;;;;5093266;28;20175;-76
2023/09/02 07:16:28;;;;;;;4.20;3.90;;;19.50;99.90;;;;;;5093154;28;20185;-76
2023/09/02 07:18:54;;;;;;;4.50;4.20;;;19.60;99.90;;;;;;5113851;28;20189;-76
2023/09/02 07:21:23;;;;;;;4.20;3.90;;;19.60;99.90;;;;;;5095513;28;20182;-77
2023/09/02 07:23:50;;;;;;;3.87;3.63;;;19.70;99.90;;;;;;5094091;28;20170;-78
2023/09/02 07:26:16;;;;;;;4.27;3.87;;;19.80;99.90;;;;;;5093945;28;20175;-75
2023/09/02 07:28:42;;;;;;;4.20;3.90;;;19.80;99.90;;;;;;5099134;28;20226;-77
2023/09/02 07:31:09;;;;;;;4.17;3.87;;;20.00;99.90;;;;;;5101892;28;20555;-76
2023/09/02 07:33:35;;;;;;;4.10;3.80;;;20.00;99.90;;;;;;5094040;28;20174;-76
2023/09/02 07:36:09;;;;;;;3.80;3.60;;;20.00;99.90;;;;;;5093289;28;20177;-75
2023/09/02 07:38:35;;;;;;;4.60;4.20;;;20.10;99.90;;;;;;5093368;28;20687;-77
2023/09/02 07:41:00;;;;;;;4.93;4.53;;;20.10;99.90;;;;;;5097949;28;20167;-78
2023/09/02 07:43:26;;;;;;;4.20;3.80;;;20.20;99.90;;;;;;5115870;28;20150;-76
2023/09/02 07:45:52;;;;;;;3.93;3.63;;;20.40;99.90;;;;;;5099650;28;20173;-76
2023/09/02 07:48:17;;;;;;;3.83;3.63;;;20.50;99.90;;;;;;5078666;28;20178;-76
2023/09/02 07:50:43;;;;;;;4.10;3.80;;;20.50;99.90;;;;;;5075464;28;20224;-78
2023/09/02 07:53:09;;;;;;;3.70;3.50;;;20.60;99.90;;;;;;5093321;28;20228;-77
2023/09/02 07:55:36;;;;;;;3.60;3.40;;;21.70;99.90;;;;;;5092939;28;20262;-76
2023/09/02 07:58:03;;;;;;;3.90;3.70;;;20.80;99.90;;;;;;5092729;28;20202;-76
2023/09/02 08:00:29;;;;;;;4.13;3.30;;;20.90;99.90;;;;;;5092788;28;20254;-78
2023/09/02 08:02:55;;;;;;;3.50;3.30;;;20.90;99.90;;;;;;5093289;28;20657;-76
2023/09/02 08:05:22;;;;;;;3.30;3.10;;;21.00;99.90;;;;;;5092790;28;20171;-78
2023/09/02 08:07:48;;;;;;;3.60;3.30;;;21.00;99.90;;;;;;5092826;28;20170;-77
2023/09/02 08:10:13;;;;;;;3.47;3.27;;;21.10;99.90;;;;;;5074831;28;20274;-77
2023/09/02 08:12:39;;;;;;;3.47;3.20;;;21.20;99.90;;;;;;5093180;28;20196;-78
2023/09/02 08:15:06;;;;;;;4.03;3.73;;;21.30;99.90;;;;;;5094568;28;20185;-77
2023/09/02 08:17:39;;;;;;;4.10;3.80;;;21.40;99.90;;;;;;5074334;28;20241;-77
2023/09/02 08:20:06;;;;;;;5.30;3.50;;;21.30;99.90;;;;;;5093084;28;20512;-77
2023/09/02 08:22:32;;;;;;;4.00;3.40;;;21.30;99.90;;;;;;5093553;28;20253;-76
2023/09/02 08:24:58;;;;;;;3.90;3.60;;;21.40;99.90;;;;;;5093311;28;20597;-76
2023/09/02 08:27:27;;;;;;;3.60;3.30;;;21.50;99.90;;;;;;5076231;28;20179;-77
2023/09/02 08:29:53;;;;;;;3.23;3.03;;;21.60;99.90;;;;;;5094928;28;20182;-78
2023/09/02 08:32:18;;;;;;;4.07;3.77;;;21.70;99.90;;;;;;5095895;28;20250;-79
2023/09/02 08:34:44;;;;;;;4.33;4.03;;;21.80;99.90;;;;;;5077912;28;20190;-77
2023/09/02 08:37:10;;;;;;;3.30;3.10;;;21.90;99.90;;;;;;5094606;28;20171;-77
2023/09/02 08:39:35;;;;;;;3.33;3.13;;;22.00;99.90;;;;;;5097932;28;20268;-78
2023/09/02 08:42:02;;;;;;;3.17;3.03;;;22.10;99.90;;;;;;5098946;28;20178;-79
2023/09/02 08:44:28;;;;;;;3.37;3.17;;;22.10;99.90;;;;;;5079603;28;20269;-78
2023/09/02 08:46:54;;;;;;;3.57;3.37;;;22.10;99.90;;;;;;5113845;28;20162;-78
2023/09/02 08:49:20;;;;;;;3.90;3.10;;;22.20;99.90;;;;;;5097022;28;20195;-76
2023/09/02 08:51:47;;;;;;;3.60;3.30;;;22.20;99.90;;;;;;5101711;28;20178;-78
2023/09/02 08:54:14;;;;;;;4.30;4.00;;;22.40;99.90;;;;;;5087559;28;20185;-77
2023/09/02 08:56:43;;;;;;;3.40;3.20;;;22.40;99.90;;;;;;5103305;28;20166;-77
2023/09/02 08:59:09;;;;;;;4.10;3.80;;;22.50;99.90;;;;;;5104737;28;20202;-78
2023/09/02 09:01:43;;;;;;;3.53;3.33;;;22.60;99.90;;;;;;5083986;28;20641;-76
2023/09/02 09:04:10;;;;;;;3.55;3.25;;;22.60;99.90;;;;;;5098040;28;20182;-77
2023/09/02 09:06:37;;;;;;;3.35;3.15;;;22.60;99.90;;;;;;5097939;28;20532;-77
2023/09/02 09:09:03;;;;;;;4.40;3.20;;;22.70;99.90;;;;;;5079849;28;20180;-76
2023/09/02 09:11:35;;;;;;;3.58;3.38;;;22.80;99.90;;;;;;5098198;28;20166;-77
2023/09/02 09:14:02;;;;;;;3.63;3.03;;;22.80;99.90;;;;;;5098711;28;20642;-77
2023/09/02 09:16:36;;;;;;;3.40;3.20;;;22.80;99.90;;;;;;5079643;28;20261;-77
2023/09/02 09:19:02;;;;;;;3.35;3.15;;;22.90;99.90;;;;;;5095476;28;20674;-77
2023/09/02 09:21:28;;;;;;;3.40;3.10;;;23.00;99.90;;;;;;5095283;28;20166;-77
2023/09/02 09:23:55;;;;;;;4.05;3.63;;;23.10;99.90;;;;;;5095424;28;20391;-77
2023/09/02 09:26:24;;;;;;;3.50;3.30;;;23.10;99.90;;;;;;5095280;28;20531;-76
2023/09/02 09:28:56;;;;;;;3.40;3.20;;;23.10;99.90;;;;;;5095267;28;20618;-77
2023/09/02 09:31:24;;;;;;;5.22;3.58;;;23.20;99.90;;;;;;5097437;28;20163;-77
2023/09/02 09:34:00;;;;;;;3.20;3.00;;;23.20;99.90;;;;;;5101173;28;20174;-77
2023/09/02 09:36:27;;;;;;;3.10;2.90;;;23.20;99.90;;;;;;5113595;28;20166;-78
2023/09/02 09:38:54;;;;;;;2.70;2.60;;;23.20;99.90;;;;;;5101411;28;20198;-77
2023/09/02 09:41:20;;;;;;;2.90;2.70;;;23.10;99.90;;;;;;5098900;28;20166;-77
2023/09/02 09:44:11;;;;;;;2.90;2.70;;;23.10;99.90;;;;;;5080861;28;20227;-78
2023/09/02 09:46:43;;;;;;;2.92;2.75;;;23.10;99.90;;;;;;5097569;28;20159;-78
2023/09/02 09:49:31;;;;;;;3.35;2.78;;;23.20;99.90;;;;;;5098070;28;20163;-77
2023/09/02 09:52:00;;;;;;;2.70;2.60;;;23.30;99.90;;;;;;5063270;28;20270;-78
2023/09/02 09:54:47;;;;;;;3.25;3.05;;;23.40;99.90;;;;;;5098090;28;20226;-77
2023/09/02 09:57:26;;;;;;;3.38;2.78;;;23.40;99.90;;;;;;5079532;28;20332;-78
2023/09/02 09:59:52;;;;;;;2.97;2.80;;;23.50;99.90;;;;;;5079914;28;20174;-77
2023/09/02 10:02:21;;;;;;;3.70;2.90;;;23.40;99.90;;;;;;5097392;28;20166;-77
2023/09/02 10:04:54;;;;;;;3.00;2.80;;;23.30;99.90;;;;;;5097688;28;20178;-77
2023/09/02 10:07:25;;;;;;;2.75;2.65;;;23.30;99.90;;;;;;5096954;28;20278;-78
2023/09/02 10:09:54;;;;;;;2.80;2.67;;;23.40;99.90;;;;;;5098151;28;20533;-77
2023/09/02 10:12:20;;;;;;;2.83;2.70;;;23.50;99.90;;;;;;5098905;28;20190;-78
2023/09/02 10:14:49;;;;;;;5.32;2.88;;;23.50;99.90;;;;;;5102215;28;20162;-79
2023/09/02 10:17:15;;;;;;;3.25;3.05;;;23.70;99.90;;;;;;5110784;28;20245;-78
2023/09/02 10:19:42;;;;;;;2.70;2.60;;;23.70;99.90;;;;;;5098505;28;20179;-79
2023/09/02 10:22:08;;;;;;;2.80;2.60;;;23.80;99.90;;;;;;5098069;28;20170;-80
2023/09/02 10:24:41;;;;;;;2.90;2.72;;;23.80;99.90;;;;;;5081884;28;20194;-77
2023/09/02 10:27:16;;;;;;;2.50;2.40;;;23.80;99.90;;;;;;5082797;28;20210;-80
2023/09/02 10:29:43;;;;;;;3.25;3.05;;;23.90;99.90;;;;;;5094935;28;20159;-78
2023/09/02 10:32:12;;;;;;;2.65;2.55;;;24.10;99.90;;;;;;5094150;28;20190;-77
2023/09/02 10:34:56;;;;;;;2.33;2.22;;;24.10;99.90;;;;;;5093856;28;20163;-78
2023/09/02 10:37:28;;;;;;;3.50;2.38;;;24.10;99.90;;;;;;5097534;28;20205;-80
2023/09/02 10:40:03;;;;;;;3.28;3.08;;;24.10;99.90;;;;;;5094318;28;20169;-79
2023/09/02 10:42:29;;;;;;;2.92;2.72;;;24.20;99.90;;;;;;5093893;28;20238;-78
2023/09/02 10:44:56;;;;;;;4.13;3.83;;;24.10;99.90;;;;;;5093829;28;20654;-78
2023/09/02 10:47:22;;;;;;;3.45;3.22;;;24.20;99.90;;;;;;5093973;28;20232;-79
2023/09/02 10:49:48;;;;;;;2.83;2.63;;;24.20;99.90;;;;;;5093792;28;20564;-78
2023/09/02 10:52:15;;;;;;;2.88;2.50;;;24.20;99.90;;;;;;5094894;28;20609;-78
2023/09/02 10:55:03;;;;;;;2.47;2.38;;;24.20;99.90;;;;;;5097155;28;20225;-78
2023/09/02 10:57:31;;;;;;;2.83;2.63;;;24.20;99.90;;;;;;5097342;28;20193;-79
2023/09/02 11:00:13;;;;;;;2.70;2.50;;;24.20;99.90;;;;;;5079275;28;20660;-79
2023/09/02 11:02:40;;;;;;;4.95;4.35;;;24.30;99.90;;;;;;5095751;28;20169;-79
2023/09/02 11:05:08;;;;;;;2.58;2.47;;;24.40;99.90;;;;;;5096708;28;20631;-81
2023/09/02 11:07:35;;;;;;;2.75;2.55;;;24.60;99.90;;;;;;5079352;28;20202;-77
2023/09/02 11:10:02;;;;;;;2.83;2.72;;;24.60;99.90;;;;;;5079521;28;20208;-80
2023/09/02 11:12:28;;;;;;;2.80;2.60;;;24.70;99.90;;;;;;5093133;28;20166;-80
2023/09/02 11:15:11;;;;;;;2.92;2.72;;;24.70;99.90;;;;;;5093145;28;20201;-79
2023/09/02 11:17:39;;;;;;;3.17;2.97;;;24.70;99.90;;;;;;5093041;28;20634;-80
2023/09/02 11:20:10;;;;;;;3.40;3.20;;;24.80;99.90;;;;;;5093364;28;20675;-79
2023/09/02 11:22:52;;;;;;;3.67;3.38;;;24.80;99.90;;;;;;5093224;28;20166;-80
2023/09/02 11:25:23;;;;;;;2.97;2.75;;;24.80;99.90;;;;;;5095632;28;20177;-79
2023/09/02 11:27:49;;;;;;;2.90;2.70;;;24.90;99.90;;;;;;5090392;28;20159;-80
2023/09/02 11:30:16;;;;;;;2.35;2.25;;;24.90;99.90;;;;;;5091872;28;20205;-79
2023/09/02 11:32:45;;;;;;;2.40;2.30;;;25.00;99.90;;;;;;5070525;28;20179;-79
2023/09/02 11:35:15;;;;;;;2.30;2.17;;;25.10;99.90;;;;;;5075713;28;20179;-80
2023/09/02 11:37:40;;;;;;;3.20;2.40;;;25.20;99.90;;;;;;5060529;28;20248;-78
2023/09/02 11:40:18;;;;;;;2.33;2.22;;;25.40;99.90;;;;;;5065114;28;20187;-80
2023/09/02 11:42:51;;;;;;;2.42;2.33;;;25.60;99.90;;;;;;5069369;28;20168;-79
2023/09/02 11:45:17;;;;;;;1.90;1.90;;;25.60;99.90;;;;;;5075200;28;20178;-78
2023/09/02 11:47:43;;;;;;;2.10;2.00;;;25.60;99.90;;;;;;5074683;28;20185;-78
2023/09/02 11:50:14;;;;;;;2.25;2.05;;;25.60;99.90;;;;;;5072599;28;20185;-79
2023/09/02 11:52:41;;;;;;;3.00;2.80;;;25.70;99.90;;;;;;5073142;28;20642;-78
2023/09/02 11:55:11;;;;;;;3.05;2.75;;;25.70;99.90;;;;;;5073579;28;20538;-79
2023/09/02 11:57:37;;;;;;;2.17;2.03;;;25.80;99.90;;;;;;5054712;28;20667;-78
2023/09/02 12:00:04;;;;;;;2.38;2.10;;;25.90;99.90;;;;;;5072524;28;20198;-78
2023/09/02 12:02:30;;;;;;;2.30;2.20;;;26.00;99.90;;;;;;5054933;28;20183;-78
2023/09/02 12:04:55;;;;;;;2.30;2.20;;;25.90;99.90;;;;;;5086032;28;20179;-80
2023/09/02 12:07:21;;;;;;;2.38;2.08;;;25.80;99.90;;;;;;5072900;28;20631;-80
2023/09/02 12:09:47;;;;;;;2.20;2.10;;;25.90;99.90;;;;;;5074823;28;20171;-78
2023/09/02 12:12:15;;;;;;;1.90;1.80;;;25.90;99.90;;;;;;5057538;28;20719;-79
2023/09/02 12:14:41;;;;;;;2.03;1.92;;;25.90;99.90;;;;;;5064268;28;20178;-78
2023/09/02 12:17:07;;;;;;;2.15;2.05;;;25.90;99.90;;;;;;5090615;28;20217;-78
2023/09/02 12:19:36;;;;;;;2.47;2.00;;;25.90;99.90;;;;;;5078848;28;20219;-78
2023/09/02 12:22:02;;;;;;;1.90;1.80;;;25.90;99.90;;;;;;5078781;28;20175;-78
2023/09/02 12:24:32;;;;;;;1.80;1.70;;;26.00;99.90;;;;;;5078005;28;20171;-79
2023/09/02 12:26:58;;;;;;;1.85;1.75;;;26.00;99.90;;;;;;5078296;28;20184;-78
2023/09/02 12:29:25;;;;;;;1.60;1.60;;;26.00;99.90;;;;;;5080020;28;20218;-79
2023/09/02 12:31:54;;;;;;;1.83;1.73;;;26.00;99.90;;;;;;5079864;28;20175;-79
2023/09/02 12:34:21;;;;;;;1.65;1.60;;;26.10;99.90;;;;;;5078586;28;20167;-79
2023/09/02 12:36:47;;;;;;;2.22;1.73;;;26.00;99.90;;;;;;5077884;28;20201;-79
2023/09/02 12:39:27;;;;;;;1.65;1.55;;;26.00;99.90;;;;;;5078846;28;20194;-79
2023/09/02 12:41:55;;;;;;;1.50;1.50;;;25.70;99.90;;;;;;5061030;28;20166;-80
2023/09/02 12:44:22;;;;;;;1.42;1.42;;;26.10;99.90;;;;;;5080616;28;20183;-79
2023/09/02 12:46:48;;;;;;;1.63;1.63;;;26.10;99.90;;;;;;5061344;28;20175;-80
2023/09/02 12:49:17;;;;;;;1.60;1.50;;;26.00;99.90;;;;;;5059091;28;20533;-79